Time;durP1;ratioP1;P1;durP2;ratioP2;P2;SDS_P1;SDS_P2;PMS_P1;PMS_P2;Temp;Humidity;BMP_temperature;BMP_pressure;BME280_temperature;BME280_humidity;BME280_pressure;Samples;Min_cycle;Max_cycle;Signal;HPM_P1;HPM_P2
2022/11/27 00:02:00;;;;;;;;;;;17.10;73.60;;;;;;10470084;28;20441;-70
2022/11/27 00:07:02;;;;;;;;;;;17.00;73.70;;;;;;10469654;28;20028;-71
2022/11/27 00:12:04;;;;;;;;;;;17.00;73.70;;;;;;10468921;28;19937;-70
2022/11/27 00:17:05;;;;;;;;;;;17.00;73.70;;;;;;10469865;28;20027;-70
2022/11/27 00:22:07;;;;;;;;;;;17.00;73.60;;;;;;10469168;28;19933;-70
2022/11/27 00:27:09;;;;;;;;;;;16.90;73.60;;;;;;10468819;28;19939;-71
2022/11/27 00:32:10;;;;;;;;;;;16.90;73.50;;;;;;10469709;28;20023;-70
2022/11/27 00:37:13;;;;;;;;;;;16.90;73.40;;;;;;10468666;28;19939;-70
2022/11/27 00:42:15;;;;;;;;;;;16.90;73.30;;;;;;10469518;28;19934;-70
2022/11/27 00:47:17;;;;;;;;;;;16.90;73.30;;;;;;10468852;28;20028;-70
2022/11/27 00:52:18;;;;;;;;;;;16.90;73.30;;;;;;10468488;28;19933;-71
2022/11/27 00:57:20;;;;;;;;;;;16.90;73.10;;;;;;10468575;28;19933;-70
2022/11/27 01:02:22;;;;;;;;;;;16.80;73.20;;;;;;10465890;28;20052;-70
2022/11/27 01:07:24;;;;;;;;;;;16.80;73.20;;;;;;10468971;28;19987;-69
2022/11/27 01:12:26;;;;;;;;;;;16.80;73.00;;;;;;10468575;28;19940;-70
2022/11/27 01:17:28;;;;;;;;;;;16.80;73.20;;;;;;10467219;28;19933;-70
2022/11/27 01:22:30;;;;;;;;;;;16.80;73.10;;;;;;10467994;28;20040;-70
2022/11/27 01:27:31;;;;;;;;;;;16.80;73.10;;;;;;10467425;28;20027;-70
2022/11/27 01:32:33;;;;;;;;;;;16.80;73.00;;;;;;10466492;28;20024;-70
2022/11/27 01:37:35;;;;;;;;;;;16.70;72.90;;;;;;10467120;28;19934;-70
2022/11/27 01:42:37;;;;;;;;;;;16.70;72.90;;;;;;10467239;28;20466;-70
2022/11/27 01:47:42;;;;;;;;;;;16.70;72.90;;;;;;10466445;28;20019;-71
2022/11/27 01:52:46;;;;;;;;;;;16.70;72.90;;;;;;10466697;28;20140;-70
2022/11/27 01:57:54;;;;;;;;;;;16.70;72.80;;;;;;10465405;28;19933;-70
2022/11/27 02:02:55;;;;;;;;;;;16.70;72.80;;;;;;10835754;22;20031;-68
2022/11/27 02:07:58;;;;;;;;;;;16.60;72.70;;;;;;10381399;28;20017;-68
2022/11/27 02:13:03;;;;;;;;;;;16.60;72.70;;;;;;10380861;28;19941;-68
2022/11/27 02:18:14;;;;;;;;;;;16.60;72.60;;;;;;10382930;28;19944;-68
2022/11/27 02:23:35;;;;;;;;;;;16.60;72.50;;;;;;10381925;28;20021;-68
2022/11/27 02:28:52;;;;;;;;;;;16.60;72.60;;;;;;10380386;28;20041;-68
2022/11/27 02:33:57;;;;;;;;;;;16.60;72.60;;;;;;10381752;28;19934;-68
2022/11/27 02:39:06;;;;;;;;;;;16.50;72.40;;;;;;10381826;28;20016;-68
2022/11/27 02:44:08;;;;;;;;;;;16.60;72.40;;;;;;10381819;28;20392;-68
2022/11/27 02:49:13;;;;;;;;;;;16.60;72.40;;;;;;10381320;28;20399;-68
2022/11/27 02:54:18;;;;;;;;;;;16.60;72.40;;;;;;10379698;28;20076;-67
2022/11/27 02:59:22;;;;;;;;;;;16.60;71.70;;;;;;10381051;28;19981;-67
2022/11/27 03:04:33;;;;;;;;;;;16.50;71.80;;;;;;10380184;28;20368;-67
2022/11/27 03:09:37;;;;;;;;;;;16.50;71.40;;;;;;10381416;28;20427;-67
2022/11/27 03:14:40;;;;;;;;;;;16.50;71.60;;;;;;10380068;28;20056;-67
2022/11/27 03:19:47;;;;;;;;;;;16.50;71.90;;;;;;10378424;28;20027;-67
2022/11/27 03:24:49;;;;;;;;;;;16.50;72.00;;;;;;10380169;28;20057;-68
2022/11/27 03:29:53;;;;;;;;;;;16.50;72.20;;;;;;10379956;28;19934;-68
2022/11/27 03:34:55;;;;;;;;;;;16.50;71.90;;;;;;10380728;28;19937;-69
2022/11/27 03:39:57;;;;;;;;;;;16.50;72.20;;;;;;10379735;28;20044;-68
2022/11/27 03:45:08;;;;;;;;;;;16.50;72.20;;;;;;10379589;28;19934;-68
2022/11/27 03:50:18;;;;;;;;;;;16.50;72.20;;;;;;10379325;28;20072;-68
2022/11/27 03:55:38;;;;;;;;;;;16.60;72.10;;;;;;10380119;28;19968;-68
2022/11/27 04:00:41;;;;;;;;;;;16.60;72.00;;;;;;10379497;28;19942;-68
2022/11/27 04:05:43;;;;;;;;;;;16.60;72.00;;;;;;10381497;28;19941;-68
2022/11/27 04:10:45;;;;;;;;;;;16.60;71.90;;;;;;10385847;28;19940;-68
2022/11/27 04:15:47;;;;;;;;;;;16.50;71.90;;;;;;10386024;28;20040;-68
2022/11/27 04:20:49;;;;;;;;;;;16.50;71.80;;;;;;10386032;28;20056;-68
2022/11/27 04:25:51;;;;;;;;;;;16.50;71.90;;;;;;10384466;28;19933;-68
2022/11/27 04:30:53;;;;;;;;;;;16.50;71.80;;;;;;10386297;28;19934;-68
2022/11/27 04:35:55;;;;;;;;;;;16.50;71.60;;;;;;10384257;28;20492;-68
2022/11/27 04:40:57;;;;;;;;;;;16.50;71.70;;;;;;10385163;28;19981;-68
2022/11/27 04:45:59;;;;;;;;;;;16.50;71.40;;;;;;10386201;28;19933;-68
2022/11/27 04:51:00;;;;;;;;;;;16.40;70.90;;;;;;10384467;28;19937;-68
2022/11/27 04:56:02;;;;;;;;;;;16.40;70.80;;;;;;10386555;28;19933;-68
2022/11/27 05:01:03;;;;;;;;;;;16.40;70.70;;;;;;10385358;28;19933;-68
2022/11/27 05:06:05;;;;;;;;;;;16.40;71.10;;;;;;10385652;28;20005;-69
2022/11/27 05:11:10;;;;;;;;;;;16.40;71.20;;;;;;10385496;28;19934;-68
2022/11/27 05:16:11;;;;;;;;;;;16.40;71.10;;;;;;10383492;28;20043;-68
2022/11/27 05:21:13;;;;;;;;;;;16.40;71.20;;;;;;10385399;28;20341;-68
2022/11/27 05:26:15;;;;;;;;;;;16.40;70.90;;;;;;10384594;28;19936;-69
2022/11/27 05:31:17;;;;;;;;;;;16.40;70.70;;;;;;10384253;28;20037;-69
2022/11/27 05:36:19;;;;;;;;;;;16.40;70.70;;;;;;10384503;28;19934;-68
2022/11/27 05:41:20;;;;;;;;;;;16.30;70.40;;;;;;10383937;28;19960;-69
2022/11/27 05:46:22;;;;;;;;;;;16.30;71.30;;;;;;10383714;28;20020;-68
2022/11/27 05:51:24;;;;;;;;;;;16.40;71.30;;;;;;10381748;28;20020;-68
2022/11/27 05:56:26;;;;;;;;;;;16.60;71.30;;;;;;10382587;28;20024;-68
2022/11/27 06:01:28;;;;;;;;;;;16.70;71.00;;;;;;10383530;28;20024;-68
2022/11/27 06:06:30;;;;;;;;;;;16.90;70.60;;;;;;10382788;28;20048;-68
2022/11/27 06:11:32;;;;;;;;;;;17.00;70.20;;;;;;10382250;28;20057;-69
2022/11/27 06:16:33;;;;;;;;;;;17.10;70.10;;;;;;10382156;28;20452;-68
2022/11/27 06:21:35;;;;;;;;;;;17.10;69.90;;;;;;10382583;28;19940;-68
2022/11/27 06:26:37;;;;;;;;;;;17.10;69.90;;;;;;10381821;28;19969;-68
2022/11/27 06:31:39;;;;;;;;;;;17.10;69.70;;;;;;10381282;28;20557;-68
2022/11/27 06:36:41;;;;;;;;;;;17.00;69.60;;;;;;10382049;28;19933;-68
2022/11/27 06:41:42;;;;;;;;;;;17.00;69.60;;;;;;10381383;28;20021;-68
2022/11/27 06:46:44;;;;;;;;;;;17.00;69.60;;;;;;10381188;28;19934;-68
2022/11/27 06:51:47;;;;;;;;;;;16.90;69.80;;;;;;10380797;28;19934;-68
2022/11/27 06:56:49;;;;;;;;;;;16.90;70.10;;;;;;10382038;28;20027;-68
2022/11/27 07:01:51;;;;;;;;;;;16.90;70.00;;;;;;10381576;28;20012;-68
2022/11/27 07:06:53;;;;;;;;;;;17.00;70.00;;;;;;10381598;28;20025;-68
2022/11/27 07:11:55;;;;;;;;;;;17.10;69.90;;;;;;10379977;28;19934;-68
2022/11/27 07:16:56;;;;;;;;;;;17.20;69.80;;;;;;10381078;28;20460;-68
2022/11/27 07:21:58;;;;;;;;;;;17.30;69.60;;;;;;10382849;28;19940;-68
2022/11/27 07:26:59;;;;;;;;;;;17.50;69.40;;;;;;10379675;28;19989;-68
2022/11/27 07:32:01;;;;;;;;;;;17.60;69.30;;;;;;10380808;28;20808;-68
2022/11/27 07:37:03;;;;;;;;;;;17.60;69.10;;;;;;10381868;28;19934;-67
2022/11/27 07:42:05;;;;;;;;;;;17.60;69.20;;;;;;10385718;28;19972;-67
2022/11/27 07:47:28;;;;;;;;;;;17.60;69.30;;;;;;10388061;28;19934;-67
2022/11/27 07:52:29;;;;;;;;;;;17.50;69.40;;;;;;10387383;28;20036;-69
2022/11/27 07:57:31;;;;;;;;;;;17.50;69.60;;;;;;10387728;28;20043;-68
2022/11/27 08:02:33;;;;;;;;;;;17.40;69.50;;;;;;10388130;28;20392;-68
2022/11/27 08:07:34;;;;;;;;;;;17.30;69.60;;;;;;10386425;28;20020;-67
2022/11/27 08:12:36;;;;;;;;;;;17.30;69.80;;;;;;10385740;28;20094;-66
2022/11/27 08:17:38;;;;;;;;;;;17.20;69.80;;;;;;10385295;28;20031;-67
2022/11/27 08:22:40;;;;;;;;;;;17.20;69.90;;;;;;10385736;28;20053;-67
2022/11/27 08:27:42;;;;;;;;;;;17.10;70.00;;;;;;10386349;28;20400;-67
2022/11/27 08:32:44;;;;;;;;;;;17.10;70.40;;;;;;10386186;28;20712;-67
2022/11/27 08:37:46;;;;;;;;;;;17.00;71.10;;;;;;10387110;28;20833;-66
2022/11/27 08:42:47;;;;;;;;;;;17.00;71.50;;;;;;10385833;28;20020;-67
2022/11/27 08:47:49;;;;;;;;;;;17.00;71.30;;;;;;10385569;28;19933;-68
2022/11/27 08:52:51;;;;;;;;;;;17.00;71.10;;;;;;10384214;28;19933;-67
2022/11/27 08:57:52;;;;;;;;;;;16.90;70.80;;;;;;10386177;28;19934;-67
2022/11/27 09:02:54;;;;;;;;;;;16.90;70.70;;;;;;10385394;28;20416;-67
2022/11/27 09:07:57;;;;;;;;;;;16.80;70.70;;;;;;10386162;28;19934;-67
2022/11/27 09:12:59;;;;;;;;;;;16.80;70.80;;;;;;10385192;28;19940;-67
2022/11/27 09:18:01;;;;;;;;;;;16.70;70.80;;;;;;10384935;28;20037;-67
2022/11/27 09:23:03;;;;;;;;;;;16.70;70.90;;;;;;10384651;28;20024;-67
2022/11/27 09:28:04;;;;;;;;;;;16.70;70.90;;;;;;10385006;28;19940;-67
2022/11/27 09:33:06;;;;;;;;;;;16.70;70.90;;;;;;10384193;28;20032;-67
2022/11/27 09:38:08;;;;;;;;;;;16.60;70.70;;;;;;10384170;28;20028;-67
2022/11/27 09:43:10;;;;;;;;;;;16.60;70.80;;;;;;10383217;28;19934;-67
2022/11/27 09:48:16;;;;;;;;;;;16.60;70.70;;;;;;10384329;28;19934;-67
2022/11/27 09:53:22;;;;;;;;;;;16.60;70.70;;;;;;10384124;28;20460;-67
2022/11/27 09:58:35;;;;;;;;;;;16.50;70.80;;;;;;10383273;28;20358;-67
2022/11/27 10:03:39;;;;;;;;;;;16.60;71.00;;;;;;10382712;28;19969;-67
2022/11/27 10:08:45;;;;;;;;;;;16.60;71.00;;;;;;10382737;28;19934;-67
2022/11/27 10:13:58;;;;;;;;;;;16.60;70.90;;;;;;10381628;28;19934;-67
2022/11/27 10:19:06;;;;;;;;;;;16.60;71.00;;;;;;10383198;28;20044;-67
2022/11/27 10:24:16;;;;;;;;;;;16.60;71.10;;;;;;10383134;28;20039;-66
2022/11/27 10:29:37;;;;;;;;;;;16.60;70.90;;;;;;10383568;28;19984;-67
2022/11/27 10:34:41;;;;;;;;;;;16.60;70.90;;;;;;10382713;28;20420;-66
2022/11/27 10:39:46;;;;;;;;;;;16.60;70.80;;;;;;10382995;28;20081;-67
2022/11/27 10:44:57;;;;;;;;;;;16.60;70.80;;;;;;10383298;28;20024;-67
2022/11/27 10:49:59;;;;;;;;;;;16.60;70.80;;;;;;10382913;28;20032;-67
2022/11/27 10:55:03;;;;;;;;;;;16.60;70.70;;;;;;10382660;28;20037;-67
2022/11/27 11:00:12;;;;;;;;;;;16.70;70.70;;;;;;10381877;28;19934;-67
2022/11/27 11:05:16;;;;;;;;;;;16.80;70.60;;;;;;10382190;28;20353;-67
2022/11/27 11:10:50;;;;;;;;;;;17.00;70.20;;;;;;10381578;28;20468;-67
2022/11/27 11:15:53;;;;;;;;;;;17.20;69.90;;;;;;10380929;28;19942;-67
2022/11/27 11:20:57;;;;;;;;;;;17.30;69.60;;;;;;10380467;28;19933;-67
2022/11/27 11:26:04;;;;;;;;;;;17.40;69.30;;;;;;10381321;28;20576;-66
2022/11/27 11:31:09;;;;;;;;;;;17.40;69.10;;;;;;10380966;28;20164;-67
2022/11/27 11:36:12;;;;;;;;;;;17.40;69.00;;;;;;10380725;28;19940;-67
2022/11/27 11:41:16;;;;;;;;;;;17.30;69.10;;;;;;10380558;28;20033;-67
2022/11/27 11:46:21;;;;;;;;;;;17.30;69.50;;;;;;10381189;28;20048;-66
2022/11/27 11:51:31;;;;;;;;;;;17.30;71.00;;;;;;10380449;28;19937;-65
2022/11/27 11:56:36;;;;;;;;;;;17.40;71.80;;;;;;10379919;28;19934;-66
2022/11/27 12:01:38;;;;;;;;;;;17.50;72.70;;;;;;10381002;28;20543;-68
2022/11/27 12:06:50;;;;;;;;;;;17.60;71.60;;;;;;10379108;28;20669;-68
2022/11/27 12:11:55;;;;;;;;;;;17.50;71.00;;;;;;10380317;28;20401;-67
2022/11/27 12:17:15;;;;;;;;;;;17.50;70.90;;;;;;10380172;28;20032;-67
2022/11/27 12:22:40;;;;;;;;;;;17.40;70.80;;;;;;10380381;28;20033;-68
2022/11/27 12:27:54;;;;;;;;;;;17.40;71.20;;;;;;10381699;28;19940;-67
2022/11/27 12:33:03;;;;;;;;;;;17.50;73.00;;;;;;10384851;28;20843;-66
2022/11/27 12:38:19;;;;;;;;;;;17.60;71.60;;;;;;10386056;28;20028;-69
2022/11/27 12:43:25;;;;;;;;;;;17.70;72.60;;;;;;10385755;28;20487;-66
2022/11/27 12:48:33;;;;;;;;;;;17.70;72.90;;;;;;10386484;28;19940;-68
2022/11/27 12:53:47;;;;;;;;;;;17.60;72.80;;;;;;10385672;28;19956;-66
2022/11/27 12:58:52;;;;;;;;;;;17.60;72.40;;;;;;10385748;28;20049;-67
2022/11/27 13:04:12;;;;;;;;;;;17.70;72.70;;;;;;10385405;28;19988;-67
2022/11/27 13:09:20;;;;;;;;;;;17.70;72.70;;;;;;10384994;28;20349;-67
2022/11/27 13:14:24;;;;;;;;;;;17.70;72.30;;;;;;10385695;28;19933;-67
2022/11/27 13:19:34;;;;;;;;;;;17.70;72.30;;;;;;10383159;28;19934;-66
2022/11/27 13:24:36;;;;;;;;;;;17.70;72.30;;;;;;10384639;28;19940;-67
2022/11/27 13:29:40;;;;;;;;;;;17.60;72.20;;;;;;10383198;28;19988;-66
2022/11/27 13:34:44;;;;;;;;;;;17.60;72.10;;;;;;10383742;28;20020;-66
2022/11/27 13:39:46;;;;;;;;;;;17.50;72.50;;;;;;10383683;28;19973;-66
2022/11/27 13:44:53;;;;;;;;;;;17.50;72.70;;;;;;10384676;28;20460;-67
2022/11/27 13:50:04;;;;;;;;;;;17.50;72.90;;;;;;10384689;28;19938;-66
2022/11/27 13:55:08;;;;;;;;;;;17.50;72.90;;;;;;10384289;28;19933;-69
2022/11/27 14:00:11;;;;;;;;;;;17.50;72.70;;;;;;10383276;28;20041;-67
2022/11/27 14:05:14;;;;;;;;;;;17.40;73.20;;;;;;10383156;28;20024;-65
2022/11/27 14:10:18;;;;;;;;;;;17.50;73.50;;;;;;10382129;28;19986;-66
2022/11/27 14:15:22;;;;;;;;;;;17.50;73.40;;;;;;10384454;28;20012;-66
2022/11/27 14:20:31;;;;;;;;;;;17.50;72.90;;;;;;10383363;28;19993;-65
2022/11/27 14:25:35;;;;;;;;;;;17.60;73.10;;;;;;10383129;28;20020;-65
2022/11/27 14:30:54;;;;;;;;;;;17.70;73.10;;;;;;10382069;28;19989;-65
2022/11/27 14:35:57;;;;;;;;;;;18.00;76.80;;;;;;10383763;28;20360;-64
2022/11/27 14:41:09;;;;;;;;;;;18.10;76.70;;;;;;10380692;28;20025;-64
2022/11/27 14:46:16;;;;;;;;;;;18.10;73.80;;;;;;10383171;28;20024;-64
2022/11/27 14:51:19;;;;;;;;;;;18.10;72.80;;;;;;10382165;28;20408;-64
2022/11/27 14:56:21;;;;;;;;;;;18.10;72.00;;;;;;10382824;28;20045;-65
2022/11/27 15:01:27;;;;;;;;;;;18.20;71.00;;;;;;10381687;28;20020;-66
2022/11/27 15:06:33;;;;;;;;;;;18.10;70.10;;;;;;10381312;28;19989;-66
2022/11/27 15:11:35;;;;;;;;;;;18.40;68.70;;;;;;10379559;28;20554;-67
2022/11/27 15:16:56;;;;;;;;;;;18.30;68.20;;;;;;10379043;28;19933;-65
2022/11/27 15:21:58;;;;;;;;;;;18.20;68.40;;;;;;10380254;28;19977;-69
2022/11/27 15:27:15;;;;;;;;;;;18.40;70.00;;;;;;10381629;28;19934;-67
2022/11/27 15:32:17;;;;;;;;;;;18.50;69.30;;;;;;10383074;28;20019;-67
2022/11/27 15:37:33;;;;;;;;;;;18.50;69.50;;;;;;10381939;28;19933;-67
2022/11/27 15:42:34;;;;;;;;;;;18.50;69.10;;;;;;10383044;28;19937;-67
2022/11/27 15:47:36;;;;;;;;;;;18.40;68.30;;;;;;10381778;28;20145;-67
2022/11/27 15:52:38;;;;;;;;;;;18.40;68.30;;;;;;10382381;28;20200;-67
2022/11/27 15:57:40;;;;;;;;;;;18.30;67.60;;;;;;10382718;28;20060;-67
2022/11/27 16:02:42;;;;;;;;;;;18.20;67.50;;;;;;10386432;28;20009;-67
2022/11/27 16:07:44;;;;;;;;;;;18.10;67.60;;;;;;10389519;28;20321;-67
2022/11/27 16:12:45;;;;;;;;;;;18.10;67.50;;;;;;10387944;28;19981;-67
2022/11/27 16:17:48;;;;;;;;;;;18.00;67.30;;;;;;10388689;28;20028;-66
2022/11/27 16:22:50;;;;;;;;;;;18.00;68.00;;;;;;10388451;28;19984;-67
2022/11/27 16:27:52;;;;;;;;;;;18.10;68.10;;;;;;10388462;28;19934;-67
2022/11/27 16:33:01;;;;;;;;;;;18.20;68.10;;;;;;10388643;28;20024;-66
2022/11/27 16:38:03;;;;;;;;;;;18.40;67.50;;;;;;10387244;28;20012;-66
2022/11/27 16:43:04;;;;;;;;;;;18.50;68.70;;;;;;10387277;28;20036;-67
2022/11/27 16:48:06;;;;;;;;;;;18.50;68.30;;;;;;10388079;28;19934;-66
2022/11/27 16:53:08;;;;;;;;;;;18.50;68.30;;;;;;10386933;28;20399;-67
2022/11/27 16:58:09;;;;;;;;;;;18.40;68.60;;;;;;10387388;28;19933;-67
2022/11/27 17:03:11;;;;;;;;;;;18.50;70.10;;;;;;10387001;28;20017;-67
2022/11/27 17:08:13;;;;;;;;;;;18.50;70.00;;;;;;10386492;28;20336;-67
2022/11/27 17:13:15;;;;;;;;;;;18.50;70.10;;;;;;10385934;28;19934;-68
2022/11/27 17:18:17;;;;;;;;;;;18.50;70.30;;;;;;10368880;28;20059;-68
2022/11/27 17:23:19;;;;;;;;;;;18.50;70.50;;;;;;10384970;28;20476;-67
2022/11/27 17:28:20;;;;;;;;;;;18.50;70.50;;;;;;10386626;28;19934;-66
2022/11/27 17:33:22;;;;;;;;;;;18.60;70.70;;;;;;10386200;28;19934;-66
2022/11/27 17:38:24;;;;;;;;;;;18.60;70.80;;;;;;10386950;28;19973;-67
2022/11/27 17:43:27;;;;;;;;;;;18.60;71.30;;;;;;10384555;28;20396;-68
2022/11/27 17:48:28;;;;;;;;;;;18.60;71.80;;;;;;10387323;28;20311;-68
2022/11/27 17:53:31;;;;;;;;;;;18.60;71.70;;;;;;10384757;28;19985;-67
2022/11/27 17:58:34;;;;;;;;;;;18.50;71.70;;;;;;10385127;28;20009;-67
2022/11/27 18:03:36;;;;;;;;;;;18.40;71.60;;;;;;10385509;28;20021;-68
2022/11/27 18:08:38;;;;;;;;;;;18.40;71.40;;;;;;10384408;28;20537;-68
2022/11/27 18:13:40;;;;;;;;;;;18.40;71.40;;;;;;10384926;28;19940;-68
2022/11/27 18:18:42;;;;;;;;;;;18.40;71.40;;;;;;10383507;28;19981;-69
2022/11/27 18:23:46;;;;;;;;;;;18.60;73.50;;;;;;10385131;28;20016;-67
2022/11/27 18:29:08;;;;;;;;;;;18.90;73.00;;;;;;10384637;28;20389;-69
2022/11/27 18:34:10;;;;;;;;;;;19.00;74.00;;;;;;10384248;28;19988;-67
2022/11/27 18:39:11;;;;;;;;;;;19.00;73.60;;;;;;10384630;28;20015;-68
2022/11/27 18:44:13;;;;;;;;;;;19.00;73.50;;;;;;10382445;28;20028;-66
2022/11/27 18:49:15;;;;;;;;;;;18.90;72.80;;;;;;10382731;28;19940;-66
2022/11/27 18:54:17;;;;;;;;;;;18.80;72.60;;;;;;10364734;28;19934;-66
2022/11/27 18:59:19;;;;;;;;;;;18.70;72.70;;;;;;10382032;28;20031;-67
2022/11/27 19:04:20;;;;;;;;;;;18.70;72.70;;;;;;10381856;28;19940;-70
2022/11/27 19:09:23;;;;;;;;;;;18.60;72.90;;;;;;10382116;28;19973;-69
2022/11/27 19:14:24;;;;;;;;;;;18.60;73.70;;;;;;10379455;28;19961;-72
2022/11/27 19:19:26;;;;;;;;;;;18.60;75.00;;;;;;10380545;28;19934;-68
2022/11/27 19:24:48;;;;;;;;;;;18.60;75.00;;;;;;10382662;28;19934;-69
2022/11/27 19:29:50;;;;;;;;;;;18.70;75.40;;;;;;10381295;28;20020;-69
2022/11/27 19:34:51;;;;;;;;;;;18.70;75.70;;;;;;10381998;28;20299;-69
2022/11/27 19:39:53;;;;;;;;;;;18.70;75.90;;;;;;10388696;28;20369;-69
2022/11/27 19:44:55;;;;;;;;;;;18.80;76.20;;;;;;10387805;28;20416;-69
2022/11/27 19:49:56;;;;;;;;;;;18.80;76.40;;;;;;10387613;28;20068;-69
2022/11/27 19:54:58;;;;;;;;;;;18.80;76.50;;;;;;10388209;28;20028;-69
2022/11/27 20:00:00;;;;;;;;;;;18.80;76.80;;;;;;10386999;28;19934;-69
2022/11/27 20:05:02;;;;;;;;;;;18.80;76.90;;;;;;10386842;28;19940;-69
2022/11/27 20:10:04;;;;;;;;;;;18.80;77.50;;;;;;10385390;28;20446;-69
2022/11/27 20:15:07;;;;;;;;;;;18.80;77.50;;;;;;10386276;28;19934;-69
2022/11/27 20:20:09;;;;;;;;;;;18.80;77.50;;;;;;10385427;28;20003;-69
2022/11/27 20:25:11;;;;;;;;;;;18.80;77.90;;;;;;10386910;28;19965;-68
2022/11/27 20:30:20;;;;;;;;;;;18.80;78.00;;;;;;10386415;28;19934;-68
2022/11/27 20:35:22;;;;;;;;;;;18.80;79.50;;;;;;10385455;28;20029;-69
2022/11/27 20:40:24;;;;;;;;;;;18.80;79.70;;;;;;10384801;28;20392;-68
2022/11/27 20:45:26;;;;;;;;;;;18.80;79.60;;;;;;10385082;28;19934;-68
2022/11/27 20:50:28;;;;;;;;;;;18.80;80.00;;;;;;10383898;28;20089;-68
2022/11/27 20:55:31;;;;;;;;;;;18.80;79.60;;;;;;10384744;28;20020;-68
2022/11/27 21:00:33;;;;;;;;;;;18.80;79.80;;;;;;10385286;28;20040;-69
2022/11/27 21:05:34;;;;;;;;;;;18.80;79.80;;;;;;10384737;28;20273;-69
2022/11/27 21:10:36;;;;;;;;;;;18.80;79.80;;;;;;10385992;28;19934;-68
2022/11/27 21:15:44;;;;;;;;;;;18.70;80.00;;;;;;10384745;28;27043;-68
2022/11/27 21:20:48;;;;;;;;;;;18.70;80.10;;;;;;10384559;28;19933;-69
2022/11/27 21:25:49;;;;;;;;;;;18.70;80.00;;;;;;10384309;28;20012;-69
2022/11/27 21:30:51;;;;;;;;;;;18.70;79.90;;;;;;10384704;28;20028;-68
2022/11/27 21:35:53;;;;;;;;;;;18.60;79.60;;;;;;10384853;28;20369;-68
2022/11/27 21:40:55;;;;;;;;;;;18.60;78.50;;;;;;10383673;28;19934;-69
2022/11/27 21:45:57;;;;;;;;;;;18.60;78.60;;;;;;10385330;28;20065;-69
2022/11/27 21:51:03;;;;;;;;;;;18.50;78.50;;;;;;10386007;28;20452;-69
2022/11/27 21:56:05;;;;;;;;;;;18.40;78.70;;;;;;10385984;28;20024;-69
2022/11/27 22:01:12;;;;;;;;;;;18.30;78.40;;;;;;10382177;28;19934;-69
2022/11/27 22:06:14;;;;;;;;;;;18.30;78.00;;;;;;10383869;28;19934;-69
2022/11/27 22:11:18;;;;;;;;;;;18.20;77.80;;;;;;10383458;28;20040;-68
2022/11/27 22:16:20;;;;;;;;;;;18.10;77.70;;;;;;10384000;28;19940;-69
2022/11/27 22:21:22;;;;;;;;;;;18.10;77.60;;;;;;10385077;28;19934;-69
2022/11/27 22:26:24;;;;;;;;;;;18.00;77.50;;;;;;10382636;28;20020;-68
2022/11/27 22:31:32;;;;;;;;;;;17.90;77.40;;;;;;10382641;28;19942;-68
2022/11/27 22:36:34;;;;;;;;;;;17.90;77.50;;;;;;10384838;28;19933;-69
2022/11/27 22:41:36;;;;;;;;;;;17.80;77.20;;;;;;10384994;28;19933;-69
2022/11/27 22:46:39;;;;;;;;;;;17.80;77.20;;;;;;10366510;28;20028;-69
2022/11/27 22:51:41;;;;;;;;;;;17.80;77.20;;;;;;10384616;28;19992;-69
2022/11/27 22:56:44;;;;;;;;;;;17.70;77.00;;;;;;10383297;28;19965;-68
2022/11/27 23:01:47;;;;;;;;;;;17.70;77.00;;;;;;10383840;28;20035;-69
2022/11/27 23:06:49;;;;;;;;;;;17.60;76.80;;;;;;10382997;28;19933;-69
2022/11/27 23:11:51;;;;;;;;;;;17.60;76.80;;;;;;10382849;28;19961;-68
2022/11/27 23:16:53;;;;;;;;;;;17.50;76.80;;;;;;10383647;28;20481;-69
2022/11/27 23:21:55;;;;;;;;;;;17.50;76.70;;;;;;10381496;28;20385;-68
2022/11/27 23:26:57;;;;;;;;;;;17.50;76.60;;;;;;10383011;28;20464;-69
2022/11/27 23:31:59;;;;;;;;;;;17.50;76.60;;;;;;10381471;28;20021;-69
2022/11/27 23:37:01;;;;;;;;;;;17.40;76.50;;;;;;10382498;28;19961;-69
2022/11/27 23:42:02;;;;;;;;;;;17.40;76.50;;;;;;10381561;28;20015;-69
2022/11/27 23:47:05;;;;;;;;;;;17.40;76.40;;;;;;10382163;28;19934;-69
2022/11/27 23:52:07;;;;;;;;;;;17.30;76.40;;;;;;10381134;28;19934;-69
2022/11/27 23:57:14;;;;;;;;;;;17.30;76.30;;;;;;10382496;28;19934;-68
